createdAt,value
2018-09-05T00:00:36.720Z,17.10
2018-09-05T00:03:05.403Z,17.00
2018-09-05T00:05:33.599Z,17.00
2018-09-05T00:08:02.014Z,17.00
2018-09-05T00:10:30.179Z,17.00
2018-09-05T00:12:58.597Z,17.00
2018-09-05T00:15:26.759Z,16.90
2018-09-05T00:17:54.919Z,16.90
2018-09-05T00:20:23.066Z,16.80
2018-09-05T00:22:51.222Z,16.80
2018-09-05T00:25:19.386Z,16.80
2018-09-05T00:27:47.530Z,16.80
2018-09-05T00:30:15.765Z,16.70
2018-09-05T00:32:43.967Z,16.70
2018-09-05T00:35:12.137Z,16.70
2018-09-05T00:37:40.452Z,16.70
2018-09-05T00:40:08.610Z,16.60
2018-09-05T00:42:36.799Z,16.60
2018-09-05T00:45:04.954Z,16.50
2018-09-05T00:47:33.251Z,16.50
2018-09-05T00:50:01.683Z,16.50
2018-09-05T00:52:30.542Z,16.40
2018-09-05T00:54:58.931Z,16.40
2018-09-05T00:57:28.119Z,16.30
2018-09-05T00:59:56.732Z,16.30
2018-09-05T01:02:24.886Z,16.30
2018-09-05T01:04:53.034Z,16.20
2018-09-05T01:07:24.222Z,16.30
2018-09-05T01:09:52.401Z,16.20
2018-09-05T01:12:21.886Z,16.30
2018-09-05T01:14:50.699Z,16.20
2018-09-05T01:17:18.867Z,16.20
2018-09-05T01:19:47.318Z,16.20
2018-09-05T01:22:15.815Z,16.10
2018-09-05T01:24:43.970Z,16.10
2018-09-05T01:27:12.333Z,16.10
2018-09-05T01:29:41.223Z,16.00
2018-09-05T01:32:10.422Z,16.00
2018-09-05T01:34:39.495Z,15.90
2018-09-05T01:37:08.168Z,15.90
2018-09-05T01:39:36.503Z,15.90
2018-09-05T01:42:04.922Z,15.90
2018-09-05T01:44:33.084Z,15.90
2018-09-05T01:47:01.256Z,15.90
2018-09-05T01:49:29.581Z,15.80
2018-09-05T01:51:58.996Z,15.80
2018-09-05T01:54:27.470Z,15.80
2018-09-05T01:56:56.134Z,15.80
2018-09-05T01:59:25.226Z,15.80
2018-09-05T02:01:53.386Z,15.70
2018-09-05T02:04:21.536Z,15.70
2018-09-05T02:06:49.698Z,15.70
2018-09-05T02:09:17.855Z,15.70
2018-09-05T02:11:46.023Z,15.70
2018-09-05T02:14:14.834Z,15.70
2018-09-05T02:16:43.254Z,15.70
2018-09-05T02:19:11.419Z,15.70
2018-09-05T02:21:39.582Z,15.70
2018-09-05T02:24:07.735Z,15.70
2018-09-05T02:26:35.943Z,15.60
2018-09-05T02:29:04.212Z,15.70
2018-09-05T02:31:32.411Z,15.70
2018-09-05T02:34:00.599Z,15.70
2018-09-05T02:36:28.775Z,15.60
2018-09-05T02:38:57.247Z,15.60
2018-09-05T02:41:25.723Z,15.50
2018-09-05T02:43:59.439Z,15.50
2018-09-05T02:46:27.634Z,15.50
2018-09-05T02:48:55.845Z,15.50
2018-09-05T02:51:24.019Z,15.40
2018-09-05T02:53:52.196Z,15.40
2018-09-05T02:56:23.847Z,15.30
2018-09-05T02:58:52.255Z,15.30
2018-09-05T03:01:20.508Z,15.20
2018-09-05T03:03:48.802Z,15.20
2018-09-05T03:06:17.030Z,15.20
2018-09-05T03:08:45.210Z,15.20
2018-09-05T03:11:13.386Z,15.20
2018-09-05T03:13:41.575Z,15.10
2018-09-05T03:16:09.756Z,15.10
2018-09-05T03:18:38.099Z,15.10
2018-09-05T03:21:06.283Z,15.10
2018-09-05T03:23:34.555Z,15.10
2018-09-05T03:26:02.668Z,15.20
2018-09-05T03:28:31.533Z,15.10
2018-09-05T03:30:59.727Z,15.00
2018-09-05T03:33:27.909Z,15.00
2018-09-05T03:35:56.308Z,14.90
2018-09-05T03:38:24.503Z,14.90
2018-09-05T03:40:52.743Z,14.90
2018-09-05T03:43:20.947Z,14.90
2018-09-05T03:45:49.131Z,14.90
2018-09-05T03:48:17.323Z,14.90
2018-09-05T03:50:45.507Z,14.90
2018-09-05T03:53:14.087Z,14.90
2018-09-05T03:55:42.271Z,14.90
2018-09-05T03:58:10.458Z,14.90
2018-09-05T04:00:38.648Z,14.90
2018-09-05T04:03:06.839Z,14.90
2018-09-05T04:05:35.024Z,14.90
2018-09-05T04:08:03.203Z,14.80
2018-09-05T04:10:31.385Z,14.80
2018-09-05T04:12:59.567Z,14.80
2018-09-05T04:15:27.765Z,14.80
2018-09-05T04:17:55.984Z,14.90
2018-09-05T04:20:24.200Z,14.80
2018-09-05T04:22:52.446Z,14.80
2018-09-05T04:25:20.623Z,14.80
2018-09-05T04:27:48.806Z,14.70
2018-09-05T04:30:17.053Z,14.70
2018-09-05T04:32:45.219Z,14.70
2018-09-05T04:35:13.654Z,14.60
2018-09-05T04:37:41.834Z,14.60
2018-09-05T04:40:10.019Z,14.60
2018-09-05T04:42:38.215Z,14.60
2018-09-05T04:45:06.436Z,14.60
2018-09-05T04:47:34.915Z,14.60
2018-09-05T04:50:03.111Z,14.70
2018-09-05T04:52:31.319Z,14.70
2018-09-05T04:54:59.523Z,14.70
2018-09-05T04:57:27.756Z,14.70
2018-09-05T04:59:55.955Z,14.70
2018-09-05T05:02:24.178Z,14.70
2018-09-05T05:04:52.447Z,14.60
2018-09-05T05:07:20.636Z,14.60
2018-09-05T05:09:48.839Z,14.70
2018-09-05T05:12:17.034Z,14.60
2018-09-05T05:14:45.250Z,14.60
2018-09-05T05:17:13.432Z,14.60
2018-09-05T05:19:41.616Z,14.70
2018-09-05T05:22:09.790Z,14.70
2018-09-05T05:24:37.998Z,14.70
2018-09-05T05:27:06.174Z,14.70
2018-09-05T05:29:34.375Z,14.70
2018-09-05T05:32:02.587Z,14.70
2018-09-05T05:34:30.820Z,14.70
2018-09-05T05:36:59.016Z,14.70
2018-09-05T05:39:28.043Z,14.70
2018-09-05T05:41:56.227Z,14.80
2018-09-05T05:44:24.434Z,14.80
2018-09-05T05:46:52.683Z,14.90
2018-09-05T05:49:20.839Z,14.80
2018-09-05T05:51:49.071Z,14.90
2018-09-05T05:54:17.215Z,15.00
2018-09-05T05:56:45.415Z,15.00
2018-09-05T05:59:13.588Z,15.10
2018-09-05T06:01:41.780Z,15.10
2018-09-05T06:04:10.249Z,15.20
2018-09-05T06:06:38.434Z,15.20
2018-09-05T06:09:08.274Z,15.30
2018-09-05T06:11:36.501Z,15.30
2018-09-05T06:14:04.979Z,15.30
2018-09-05T06:16:33.183Z,15.40
2018-09-05T06:19:01.382Z,15.40
2018-09-05T06:21:29.901Z,15.50
2018-09-05T06:23:58.296Z,15.60
2018-09-05T06:26:26.430Z,15.60
2018-09-05T06:28:54.627Z,15.70
2018-09-05T06:31:23.272Z,15.80
2018-09-05T06:33:51.218Z,15.80
2018-09-05T06:36:19.375Z,15.90
2018-09-05T06:38:47.786Z,16.00
2018-09-05T06:41:15.938Z,16.10
2018-09-05T06:43:44.095Z,16.10
2018-09-05T06:46:12.281Z,16.30
2018-09-05T06:48:40.627Z,16.30
2018-09-05T06:51:08.799Z,16.40
2018-09-05T06:53:38.367Z,16.50
2018-09-05T06:56:06.526Z,16.50
2018-09-05T06:58:35.422Z,16.60
2018-09-05T07:01:04.875Z,16.70
2018-09-05T07:03:33.077Z,16.80
2018-09-05T07:06:01.183Z,16.90
2018-09-05T07:08:29.332Z,17.00
2018-09-05T07:10:57.491Z,17.00
2018-09-05T07:13:25.891Z,17.10
2018-09-05T07:15:54.039Z,17.20
2018-09-05T07:18:22.191Z,17.20
2018-09-05T07:20:50.368Z,17.30
2018-09-05T07:23:18.557Z,17.40
2018-09-05T07:25:46.736Z,17.50
2018-09-05T07:28:14.891Z,17.60
2018-09-05T07:30:43.138Z,17.70
2018-09-05T07:33:11.286Z,17.60
2018-09-05T07:35:39.557Z,17.60
2018-09-05T07:38:07.968Z,17.70
2018-09-05T07:40:36.149Z,17.80
2018-09-05T07:43:04.339Z,17.90
2018-09-05T07:45:32.863Z,18.10
2018-09-05T07:48:01.083Z,18.20
2018-09-05T07:50:29.746Z,18.20
2018-09-05T07:52:57.910Z,18.30
2018-09-05T07:55:26.286Z,18.40
2018-09-05T07:57:54.490Z,18.50
2018-09-05T08:00:22.700Z,18.60
2018-09-05T08:02:50.944Z,18.70
2018-09-05T08:05:19.144Z,18.90
2018-09-05T08:07:47.375Z,19.00
2018-09-05T08:10:15.718Z,19.10
2018-09-05T08:12:44.030Z,19.20
2018-09-05T08:15:12.250Z,19.30
2018-09-05T08:17:40.434Z,19.40
2018-09-05T08:20:08.610Z,19.50
2018-09-05T08:22:36.802Z,19.60
2018-09-05T08:25:05.443Z,19.50
2018-09-05T08:27:33.627Z,19.60
2018-09-05T08:30:01.867Z,19.70
2018-09-05T08:32:29.947Z,19.90
2018-09-05T08:34:58.191Z,20.00
2018-09-05T08:37:26.479Z,20.20
2018-09-05T08:39:54.409Z,20.20
2018-09-05T08:42:22.999Z,20.10
2018-09-05T08:44:51.671Z,20.10
2018-09-05T08:47:19.580Z,20.20
2018-09-05T08:49:47.748Z,20.40
2018-09-05T08:52:15.944Z,20.50
2018-09-05T08:54:44.116Z,20.70
2018-09-05T08:57:12.296Z,20.60
2018-09-05T08:59:40.446Z,20.70
2018-09-05T09:02:08.608Z,20.90
2018-09-05T09:04:36.822Z,21.10
2018-09-05T09:07:05.214Z,21.10
2018-09-05T09:09:33.812Z,21.20
2018-09-05T09:12:02.025Z,21.20
2018-09-05T09:14:30.199Z,21.40
2018-09-05T09:16:58.475Z,21.50
2018-09-05T09:19:26.678Z,21.60
2018-09-05T09:21:54.871Z,21.70
2018-09-05T09:24:23.167Z,21.70
2018-09-05T09:26:51.370Z,21.80
2018-09-05T09:29:19.694Z,22.00
2018-09-05T09:31:47.855Z,22.00
2018-09-05T09:34:17.724Z,22.10
2018-09-05T09:36:46.073Z,22.20
2018-09-05T09:39:14.243Z,22.20
2018-09-05T09:41:42.574Z,22.30
2018-09-05T09:44:10.727Z,22.40
2018-09-05T09:46:38.948Z,22.50
2018-09-05T09:49:07.065Z,22.50
2018-09-05T09:51:35.255Z,22.60
2018-09-05T09:54:03.418Z,22.80
2018-09-05T09:56:31.608Z,22.90
2018-09-05T09:59:00.187Z,23.10
2018-09-05T10:01:33.835Z,23.10
2018-09-05T10:04:07.729Z,23.10
2018-09-05T10:06:46.306Z,23.40
2018-09-05T10:09:19.743Z,23.60
2018-09-05T10:11:53.488Z,23.70
2018-09-05T10:14:27.206Z,23.90
2018-09-05T10:17:00.932Z,23.90
2018-09-05T10:19:29.043Z,23.80
2018-09-05T10:21:57.499Z,23.90
2018-09-05T10:24:25.689Z,24.00
2018-09-05T10:26:53.959Z,24.10
2018-09-05T10:29:22.139Z,24.10
2018-09-05T10:31:50.425Z,24.20
2018-09-05T10:34:18.570Z,24.30
2018-09-05T10:36:46.753Z,24.50
2018-09-05T10:39:14.944Z,24.50
2018-09-05T10:41:43.131Z,24.60
2018-09-05T10:44:11.327Z,24.70
2018-09-05T10:46:39.511Z,25.00
2018-09-05T10:49:08.355Z,25.10
2018-09-05T10:51:42.117Z,25.20
2018-09-05T10:54:10.306Z,25.20
2018-09-05T10:56:38.494Z,25.40
2018-09-05T10:59:06.703Z,25.60
2018-09-05T11:01:34.891Z,25.70
2018-09-05T11:04:03.085Z,25.60
2018-09-05T11:06:31.279Z,25.40
2018-09-05T11:08:59.479Z,25.40
2018-09-05T11:11:27.656Z,25.30
2018-09-05T11:13:55.859Z,25.50
2018-09-05T11:16:24.036Z,25.70
2018-09-05T11:18:52.242Z,25.70
2018-09-05T11:21:20.495Z,25.90
2018-09-05T11:23:48.634Z,25.90
2018-09-05T11:26:16.822Z,25.90
2018-09-05T11:28:45.014Z,26.00
2018-09-05T11:31:13.443Z,26.10
2018-09-05T11:33:41.811Z,25.90
2018-09-05T11:36:10.005Z,25.90
2018-09-05T11:38:38.438Z,26.10
2018-09-05T11:41:06.621Z,26.30
2018-09-05T11:43:34.766Z,26.60
2018-09-05T11:46:03.203Z,26.90
2018-09-05T11:48:31.395Z,27.00
2018-09-05T11:50:59.927Z,27.00
2018-09-05T11:53:28.186Z,27.00
2018-09-05T11:55:56.355Z,27.20
2018-09-05T11:58:24.514Z,27.30
2018-09-05T12:00:52.675Z,27.60
2018-09-05T12:03:20.831Z,27.70
2018-09-05T12:05:48.998Z,27.80
2018-09-05T12:08:17.161Z,27.80
2018-09-05T12:10:45.360Z,27.90
2018-09-05T12:13:13.561Z,27.90
2018-09-05T12:15:41.732Z,28.10
2018-09-05T12:18:09.926Z,28.30
2018-09-05T12:20:38.303Z,28.30
2018-09-05T12:23:07.088Z,28.40
2018-09-05T12:25:35.375Z,28.40
2018-09-05T12:28:03.563Z,28.50
2018-09-05T12:30:32.048Z,28.80
2018-09-05T12:33:00.246Z,28.70
2018-09-05T12:35:28.447Z,28.30
2018-09-05T12:37:56.943Z,28.00
2018-09-05T12:40:25.180Z,27.90
2018-09-05T12:42:53.315Z,27.90
2018-09-05T12:45:21.519Z,28.00
2018-09-05T12:47:49.706Z,28.00
2018-09-05T12:50:17.981Z,27.90
2018-09-05T12:52:46.202Z,28.20
2018-09-05T12:55:14.427Z,28.40
2018-09-05T12:57:42.615Z,28.30
2018-09-05T13:00:10.805Z,27.90
2018-09-05T13:02:39.031Z,27.60
2018-09-05T13:05:07.420Z,27.50
2018-09-05T13:07:35.735Z,27.60
2018-09-05T13:10:03.933Z,27.80
2018-09-05T13:12:32.123Z,28.00
2018-09-05T13:15:00.490Z,28.10
2018-09-05T13:17:28.694Z,28.10
2018-09-05T13:19:56.869Z,27.90
2018-09-05T13:22:25.058Z,27.80
2018-09-05T13:24:53.234Z,28.00
2018-09-05T13:27:21.441Z,28.20
2018-09-05T13:29:49.919Z,28.40
2018-09-05T13:32:18.116Z,28.50
2018-09-05T13:34:46.283Z,28.60
2018-09-05T13:37:14.459Z,28.50
2018-09-05T13:39:42.923Z,28.10
2018-09-05T13:42:11.095Z,27.70
2018-09-05T13:44:39.342Z,27.40
2018-09-05T13:47:07.731Z,27.30
2018-09-05T13:49:35.886Z,27.60
2018-09-05T13:52:05.099Z,27.80
2018-09-05T13:54:34.795Z,28.10
2018-09-05T13:57:02.983Z,28.00
2018-09-05T13:59:31.561Z,27.70
2018-09-05T14:01:59.995Z,27.20
2018-09-05T14:04:28.163Z,26.90
2018-09-05T14:06:56.368Z,26.80
2018-09-05T14:09:24.536Z,26.90
2018-09-05T14:11:52.734Z,27.20
2018-09-05T14:14:20.896Z,27.40
2018-09-05T14:16:49.074Z,27.60
2018-09-05T14:19:17.999Z,27.60
2018-09-05T14:21:46.190Z,27.70
2018-09-05T14:24:14.347Z,28.00
2018-09-05T14:26:42.779Z,28.10
2018-09-05T14:29:11.262Z,28.10
2018-09-05T14:31:39.450Z,28.00
2018-09-05T14:34:07.901Z,27.80
2018-09-05T14:36:36.067Z,27.50
2018-09-05T14:39:07.526Z,27.20
2018-09-05T14:41:35.684Z,27.00
2018-09-05T14:44:03.859Z,27.00
2018-09-05T14:46:32.068Z,27.10
2018-09-05T14:49:00.292Z,27.10
2018-09-05T14:51:28.450Z,27.20
2018-09-05T14:53:56.662Z,27.20
2018-09-05T14:56:24.775Z,27.10
2018-09-05T14:58:52.930Z,26.90
2018-09-05T15:01:21.087Z,26.70
2018-09-05T15:03:49.247Z,26.70
2018-09-05T15:06:17.467Z,26.60
2018-09-05T15:08:45.611Z,26.60
2018-09-05T15:11:13.758Z,26.60
2018-09-05T15:13:42.205Z,26.50
2018-09-05T15:16:10.351Z,26.50
2018-09-05T15:18:38.715Z,26.40
2018-09-05T15:21:07.194Z,26.40
2018-09-05T15:23:35.387Z,26.40
2018-09-05T15:26:03.651Z,26.30
2018-09-05T15:28:31.844Z,26.30
2018-09-05T15:31:00.041Z,26.20
2018-09-05T15:33:28.207Z,26.10
2018-09-05T15:35:56.521Z,26.00
2018-09-05T15:38:24.759Z,25.90
2018-09-05T15:40:52.902Z,25.80
2018-09-05T15:43:21.063Z,25.70
2018-09-05T15:45:49.231Z,25.60
2018-09-05T15:48:17.433Z,25.60
2018-09-05T15:50:45.592Z,25.60
2018-09-05T15:53:13.983Z,25.50
2018-09-05T15:55:42.139Z,25.50
2018-09-05T15:58:10.302Z,25.50
2018-09-05T16:00:38.457Z,25.50
2018-09-05T16:03:06.622Z,25.50
2018-09-05T16:05:34.782Z,25.50
2018-09-05T16:08:02.947Z,25.40
2018-09-05T16:10:31.098Z,25.30
2018-09-05T16:12:59.258Z,25.20
2018-09-05T16:15:28.010Z,25.20
2018-09-05T16:17:56.291Z,25.10
2018-09-05T16:20:24.451Z,25.00
2018-09-05T16:22:52.603Z,25.00
2018-09-05T16:25:20.828Z,25.00
2018-09-05T16:27:49.008Z,24.90
2018-09-05T16:30:17.200Z,24.80
2018-09-05T16:32:45.346Z,24.70
2018-09-05T16:35:14.192Z,24.70
2018-09-05T16:37:43.194Z,24.60
2018-09-05T16:40:12.278Z,24.50
2018-09-05T16:42:41.459Z,24.50
2018-09-05T16:45:10.751Z,24.50
2018-09-05T16:47:39.286Z,24.40
2018-09-05T16:50:07.753Z,24.30
2018-09-05T16:52:37.007Z,24.30
2018-09-05T16:55:05.960Z,24.30
2018-09-05T16:57:34.828Z,24.20
2018-09-05T17:00:03.328Z,24.10
2018-09-05T17:02:31.806Z,24.00
2018-09-05T17:05:01.104Z,23.90
2018-09-05T17:07:29.800Z,23.90
2018-09-05T17:09:58.439Z,23.80
2018-09-05T17:12:27.248Z,23.70
2018-09-05T17:14:55.687Z,23.70
2018-09-05T17:17:24.584Z,23.60
2018-09-05T17:19:53.452Z,23.50
2018-09-05T17:22:22.198Z,23.40
2018-09-05T17:24:51.225Z,23.40
2018-09-05T17:27:19.843Z,23.30
2018-09-05T17:29:49.033Z,23.20
2018-09-05T17:32:17.516Z,23.20
2018-09-05T17:34:46.108Z,23.10
2018-09-05T17:37:15.464Z,23.00
2018-09-05T17:39:44.815Z,23.00
2018-09-05T17:42:13.239Z,22.80
2018-09-05T17:44:42.207Z,22.70
2018-09-05T17:47:10.754Z,22.70
2018-09-05T17:49:39.837Z,22.60
2018-09-05T17:52:09.369Z,22.50
2018-09-05T17:54:38.554Z,22.40
2018-09-05T17:57:07.647Z,22.30
2018-09-05T17:59:36.532Z,22.20
2018-09-05T18:02:05.951Z,22.10
2018-09-05T18:04:34.488Z,21.90
2018-09-05T18:07:03.556Z,21.80
2018-09-05T18:09:31.737Z,21.70
2018-09-05T18:12:00.202Z,21.60
2018-09-05T18:14:28.374Z,21.50
2018-09-05T18:16:56.546Z,21.40
2018-09-05T18:19:24.954Z,21.40
2018-09-05T18:21:53.167Z,21.30
2018-09-05T18:24:21.615Z,21.30
2018-09-05T18:26:49.826Z,21.20
2018-09-05T18:29:18.002Z,21.10
2018-09-05T18:31:46.168Z,21.10
2018-09-05T18:34:14.598Z,21.00
2018-09-05T18:36:43.029Z,21.00
2018-09-05T18:39:11.196Z,20.90
2018-09-05T18:41:39.604Z,20.90
2018-09-05T18:44:07.774Z,20.80
2018-09-05T18:46:35.950Z,20.70
2018-09-05T18:49:04.682Z,20.70
2018-09-05T18:51:33.099Z,20.60
2018-09-05T18:54:01.507Z,20.50
2018-09-05T18:56:29.677Z,20.50
2018-09-05T18:58:58.263Z,20.40
2018-09-05T19:01:26.438Z,20.40
2018-09-05T19:03:54.586Z,20.30
2018-09-05T19:06:23.080Z,20.30
2018-09-05T19:08:51.478Z,20.30
2018-09-05T19:11:19.639Z,20.20
2018-09-05T19:13:47.795Z,20.20
2018-09-05T19:16:15.958Z,20.20
2018-09-05T19:18:44.155Z,20.10
2018-09-05T19:21:12.335Z,20.10
2018-09-05T19:23:40.508Z,20.00
2018-09-05T19:26:08.898Z,20.00
2018-09-05T19:28:37.051Z,19.90
2018-09-05T19:31:05.222Z,19.80
2018-09-05T19:33:33.372Z,19.80
2018-09-05T19:36:01.878Z,19.90
2018-09-05T19:38:30.035Z,19.80
2018-09-05T19:40:58.211Z,19.80
2018-09-05T19:43:26.908Z,19.70
2018-09-05T19:45:55.235Z,19.70
2018-09-05T19:48:23.386Z,19.60
2018-09-05T19:50:51.580Z,19.60
2018-09-05T19:53:19.759Z,19.60
2018-09-05T19:55:47.962Z,19.60
2018-09-05T19:58:16.197Z,19.50
2018-09-05T20:00:44.411Z,19.50
2018-09-05T20:03:12.726Z,19.40
2018-09-05T20:05:40.907Z,19.40
2018-09-05T20:08:09.459Z,19.40
2018-09-05T20:10:37.656Z,19.40
2018-09-05T20:13:06.482Z,19.30
2018-09-05T20:15:34.739Z,19.30
2018-09-05T20:18:02.872Z,19.30
2018-09-05T20:20:31.058Z,19.20
2018-09-05T20:22:59.255Z,19.20
2018-09-05T20:25:27.434Z,19.20
2018-09-05T20:27:55.626Z,19.20
2018-09-05T20:30:23.826Z,19.10
2018-09-05T20:32:52.057Z,19.10
2018-09-05T20:35:20.439Z,19.10
2018-09-05T20:37:48.599Z,19.10
2018-09-05T20:40:16.762Z,19.00
2018-09-05T20:42:44.957Z,19.00
2018-09-05T20:45:13.352Z,18.90
2018-09-05T20:47:41.540Z,18.90
2018-09-05T20:50:09.751Z,18.90
2018-09-05T20:52:37.919Z,18.80
2018-09-05T20:55:06.071Z,18.80
2018-09-05T20:57:34.577Z,18.80
2018-09-05T21:00:02.723Z,18.70
2018-09-05T21:02:30.887Z,18.70
2018-09-05T21:04:59.075Z,18.70
2018-09-05T21:07:27.199Z,18.70
2018-09-05T21:09:55.354Z,18.60
2018-09-05T21:12:23.518Z,18.60
2018-09-05T21:14:51.672Z,18.60
2018-09-05T21:17:19.834Z,18.60
2018-09-05T21:19:47.994Z,18.50
2018-09-05T21:22:17.254Z,18.50
2018-09-05T21:24:45.499Z,18.50
2018-09-05T21:27:13.742Z,18.50
2018-09-05T21:29:42.167Z,18.40
2018-09-05T21:32:10.359Z,18.40
2018-09-05T21:34:38.735Z,18.40
2018-09-05T21:37:07.010Z,18.40
2018-09-05T21:39:35.299Z,18.40
2018-09-05T21:42:03.763Z,18.30
2018-09-05T21:44:31.951Z,18.30
2018-09-05T21:47:00.144Z,18.30
2018-09-05T21:49:28.421Z,18.30
2018-09-05T21:51:56.879Z,18.20
2018-09-05T21:54:25.250Z,18.20
2018-09-05T21:56:53.423Z,18.20
2018-09-05T21:59:22.610Z,18.10
2018-09-05T22:01:50.848Z,18.00
2018-09-05T22:04:19.089Z,18.00
2018-09-05T22:06:47.339Z,18.00
2018-09-05T22:09:15.531Z,18.00
2018-09-05T22:11:43.718Z,18.00
2018-09-05T22:14:11.916Z,17.90
2018-09-05T22:16:40.094Z,17.90
2018-09-05T22:19:08.296Z,17.90
2018-09-05T22:21:36.475Z,17.80
2018-09-05T22:24:04.667Z,17.80
2018-09-05T22:26:32.847Z,17.80
2018-09-05T22:29:01.030Z,17.70
2018-09-05T22:31:29.224Z,17.70
2018-09-05T22:33:57.414Z,17.70
2018-09-05T22:36:25.594Z,17.70
2018-09-05T22:38:53.991Z,17.70
2018-09-05T22:41:22.188Z,17.60
2018-09-05T22:44:01.802Z,17.60
2018-09-05T22:46:41.338Z,17.60
2018-09-05T22:53:36.280Z,17.60
2018-09-05T22:56:21.513Z,17.50
2018-09-05T22:59:03.984Z,17.20
2018-09-05T23:01:42.118Z,17.20
2018-09-05T23:04:36.542Z,17.20
2018-09-05T23:07:12.751Z,17.20
2018-09-05T23:09:52.341Z,17.20
2018-09-05T23:12:31.855Z,17.20
2018-09-05T23:15:11.601Z,17.20
2018-09-05T23:18:19.457Z,17.20
2018-09-05T23:20:57.775Z,17.20
2018-09-05T23:23:37.908Z,17.10
2018-09-05T23:26:06.137Z,17.10
2018-09-05T23:28:34.643Z,17.10
2018-09-05T23:31:03.365Z,17.00
2018-09-05T23:33:31.563Z,17.00
2018-09-05T23:35:59.755Z,17.00
2018-09-05T23:38:27.955Z,17.00
2018-09-05T23:40:56.143Z,17.00
2018-09-05T23:43:24.335Z,17.00
2018-09-05T23:45:52.747Z,17.00
2018-09-05T23:48:21.059Z,16.90
2018-09-05T23:50:49.252Z,16.90
2018-09-05T23:53:17.435Z,16.90
2018-09-05T23:55:45.652Z,16.90
2018-09-05T23:58:13.883Z,16.90
